createdAt,value
2018-05-11T00:00:10.946Z,93.60
2018-05-11T00:02:39.521Z,93.10
2018-05-11T00:05:09.121Z,92.60
2018-05-11T00:07:37.140Z,92.40
2018-05-11T00:10:05.106Z,92.20
2018-05-11T00:12:32.860Z,92.30
2018-05-11T00:15:00.776Z,92.20
2018-05-11T00:17:28.775Z,92.30
2018-05-11T00:19:56.695Z,92.60
2018-05-11T00:22:24.635Z,92.30
2018-05-11T00:24:52.396Z,92.30
2018-05-11T00:27:20.417Z,92.40
2018-05-11T00:29:48.276Z,92.50
2018-05-11T00:32:16.186Z,92.60
2018-05-11T00:34:43.995Z,92.70
2018-05-11T00:37:12.135Z,92.80
2018-05-11T00:39:40.416Z,93.00
2018-05-11T00:42:08.555Z,92.90
2018-05-11T00:44:36.576Z,92.70
2018-05-11T00:47:04.556Z,92.80
2018-05-11T00:49:32.616Z,93.00
2018-05-11T00:52:00.476Z,92.90
2018-05-11T00:54:28.476Z,93.00
2018-05-11T00:56:56.536Z,93.40
2018-05-11T00:59:24.436Z,93.10
2018-05-11T01:01:54.495Z,93.20
2018-05-11T01:04:22.296Z,93.30
2018-05-11T01:06:50.175Z,93.30
2018-05-11T01:09:18.035Z,93.40
2018-05-11T01:11:45.995Z,93.30
2018-05-11T01:14:14.235Z,93.10
2018-05-11T01:16:42.355Z,93.00
2018-05-11T01:19:10.235Z,93.40
2018-05-11T01:21:38.256Z,93.30
2018-05-11T01:24:06.155Z,93.20
2018-05-11T01:26:33.996Z,93.10
2018-05-11T01:29:01.896Z,92.80
2018-05-11T01:31:29.816Z,93.00
2018-05-11T01:33:57.679Z,92.80
2018-05-11T01:36:25.775Z,93.00
2018-05-11T01:38:53.655Z,93.70
2018-05-11T01:41:21.719Z,94.30
2018-05-11T01:43:50.297Z,94.50
2018-05-11T01:46:18.295Z,94.50
2018-05-11T01:48:46.293Z,94.60
2018-05-11T01:51:14.076Z,94.70
2018-05-11T01:53:42.055Z,94.60
2018-05-11T01:56:10.056Z,94.60
2018-05-11T01:58:38.096Z,94.40
2018-05-11T02:01:06.096Z,94.60
2018-05-11T02:03:34.695Z,94.70
2018-05-11T02:06:02.696Z,94.70
2018-05-11T02:08:30.636Z,95.30
2018-05-11T02:10:58.636Z,95.70
2018-05-11T02:13:26.376Z,95.80
2018-05-11T02:15:54.215Z,95.60
2018-05-11T02:18:22.235Z,95.40
2018-05-11T02:20:50.400Z,95.20
2018-05-11T02:23:18.317Z,95.50
2018-05-11T02:25:46.517Z,95.70
2018-05-11T02:28:14.616Z,95.60
2018-05-11T02:30:42.555Z,95.70
2018-05-11T02:33:11.834Z,96.00
2018-05-11T02:35:39.574Z,96.10
2018-05-11T02:38:07.854Z,96.50
2018-05-11T02:40:35.622Z,96.10
2018-05-11T02:43:03.995Z,96.30
2018-05-11T02:45:32.374Z,97.20
2018-05-11T02:48:00.535Z,97.60
2018-05-11T02:50:28.479Z,97.60
2018-05-11T02:52:56.394Z,97.50
2018-05-11T02:55:24.294Z,97.40
2018-05-11T02:57:52.559Z,97.50
2018-05-11T03:00:20.243Z,97.40
2018-05-11T03:02:48.537Z,97.30
2018-05-11T03:05:16.457Z,97.00
2018-05-11T03:07:44.457Z,97.20
2018-05-11T03:10:12.377Z,96.60
2018-05-11T03:12:41.077Z,96.80
2018-05-11T03:15:08.957Z,96.80
2018-05-11T03:17:37.356Z,97.10
2018-05-11T03:20:05.397Z,96.80
2018-05-11T03:22:33.357Z,96.90
2018-05-11T03:25:01.660Z,97.00
2018-05-11T03:27:29.597Z,97.00
2018-05-11T03:29:57.419Z,97.00
2018-05-11T03:32:26.197Z,97.00
2018-05-11T03:34:54.137Z,97.00
2018-05-11T03:37:22.137Z,97.00
2018-05-11T03:39:50.297Z,96.90
2018-05-11T03:42:18.338Z,96.90
2018-05-11T03:44:46.277Z,96.80
2018-05-11T03:47:14.117Z,96.80
2018-05-11T03:49:41.988Z,96.70
2018-05-11T03:52:09.929Z,96.60
2018-05-11T03:54:37.946Z,96.40
2018-05-11T03:57:05.818Z,96.40
2018-05-11T03:59:33.919Z,96.30
2018-05-11T04:02:13.956Z,96.30
2018-05-11T04:04:53.536Z,96.20
2018-05-11T04:07:33.216Z,96.10
2018-05-11T04:10:01.136Z,96.00
2018-05-11T04:12:29.276Z,96.20
2018-05-11T04:14:58.276Z,96.00
2018-05-11T04:17:26.617Z,95.90
2018-05-11T04:19:54.777Z,95.80
2018-05-11T04:22:22.596Z,95.90
2018-05-11T04:24:50.398Z,96.00
2018-05-11T04:27:20.119Z,96.20
2018-05-11T04:29:48.095Z,96.30
2018-05-11T04:32:15.995Z,96.30
2018-05-11T04:34:43.915Z,96.20
2018-05-11T04:37:11.691Z,96.30
2018-05-11T04:39:40.075Z,96.10
2018-05-11T04:42:09.314Z,96.10
2018-05-11T04:44:37.334Z,96.20
2018-05-11T04:47:05.237Z,96.10
2018-05-11T04:49:33.654Z,96.10
2018-05-11T04:52:01.535Z,96.10
2018-05-11T04:54:29.534Z,96.10
2018-05-11T04:56:57.774Z,95.90
2018-05-11T04:59:25.814Z,95.90
2018-05-11T05:01:55.094Z,96.10
2018-05-11T05:04:22.975Z,96.10
2018-05-11T05:06:51.096Z,96.30
2018-05-11T05:09:18.934Z,96.10
2018-05-11T05:11:46.874Z,96.10
2018-05-11T05:14:27.555Z,96.00
2018-05-11T05:16:55.517Z,95.90
2018-05-11T05:19:23.367Z,96.00
2018-05-11T05:21:51.215Z,96.10
2018-05-11T05:24:19.374Z,96.10
2018-05-11T05:26:47.295Z,96.10
2018-05-11T05:29:15.334Z,96.30
2018-05-11T05:31:43.134Z,96.20
2018-05-11T05:34:10.994Z,96.20
2018-05-11T05:36:38.874Z,96.30
2018-05-11T05:39:06.522Z,96.20
2018-05-11T05:41:34.476Z,96.30
2018-05-11T05:44:02.395Z,96.40
2018-05-11T05:46:30.595Z,96.40
2018-05-11T05:48:58.435Z,96.40
2018-05-11T05:51:26.235Z,96.60
2018-05-11T05:53:53.899Z,96.50
2018-05-11T05:56:21.740Z,96.70
2018-05-11T05:58:50.479Z,97.20
2018-05-11T06:01:20.616Z,97.20
2018-05-11T06:03:48.463Z,97.20
2018-05-11T06:06:16.101Z,96.90
2018-05-11T06:08:44.377Z,96.90
2018-05-11T06:11:12.156Z,97.10
2018-05-11T06:13:40.316Z,96.90
2018-05-11T06:16:08.236Z,96.80
2018-05-11T06:18:36.296Z,96.60
2018-05-11T06:21:04.475Z,95.30
2018-05-11T06:23:32.375Z,95.60
2018-05-11T06:26:00.716Z,95.30
2018-05-11T06:28:30.876Z,95.40
2018-05-11T06:30:59.557Z,96.30
2018-05-11T06:33:27.535Z,96.30
2018-05-11T06:35:55.376Z,96.50
2018-05-11T06:38:23.255Z,96.40
2018-05-11T06:40:51.275Z,96.40
2018-05-11T06:43:19.955Z,96.30
2018-05-11T06:45:47.835Z,96.30
2018-05-11T06:48:15.895Z,96.20
2018-05-11T06:50:44.454Z,96.00
2018-05-11T06:53:13.181Z,96.00
2018-05-11T06:55:41.015Z,95.90
2018-05-11T06:58:09.095Z,95.60
2018-05-11T07:00:36.800Z,95.40
2018-05-11T07:03:04.777Z,95.40
2018-05-11T07:05:32.617Z,96.00
2018-05-11T07:08:00.516Z,95.80
2018-05-11T07:10:28.596Z,95.70
2018-05-11T07:12:56.516Z,95.30
2018-05-11T07:15:24.456Z,94.60
2018-05-11T07:17:52.536Z,94.80
2018-05-11T07:20:20.536Z,95.00
2018-05-11T07:22:48.537Z,95.30
2018-05-11T07:25:16.477Z,94.60
2018-05-11T07:27:44.577Z,93.90
2018-05-11T07:30:12.476Z,93.00
2018-05-11T07:32:40.336Z,93.20
2018-05-11T07:35:08.158Z,93.20
2018-05-11T07:37:36.238Z,92.60
2018-05-11T07:40:04.056Z,92.50
2018-05-11T07:42:32.116Z,91.90
2018-05-11T07:45:00.456Z,92.00
2018-05-11T07:47:28.356Z,92.00
2018-05-11T07:49:57.195Z,91.60
2018-05-11T07:54:57.097Z,91.70
2018-05-11T07:57:25.056Z,91.40
2018-05-11T07:59:52.860Z,90.90
2018-05-11T08:02:20.976Z,91.10
2018-05-11T08:04:48.777Z,90.10
2018-05-11T08:07:17.476Z,91.00
2018-05-11T08:09:45.277Z,91.00
2018-05-11T08:12:13.037Z,90.50
2018-05-11T08:14:41.017Z,89.50
2018-05-11T08:17:08.817Z,90.20
2018-05-11T08:19:36.877Z,89.90
2018-05-11T08:22:04.757Z,90.50
2018-05-11T08:24:32.860Z,88.70
2018-05-11T08:27:00.880Z,87.50
2018-05-11T08:29:31.377Z,84.70
2018-05-11T08:31:59.265Z,86.40
2018-05-11T08:34:27.240Z,88.40
2018-05-11T08:36:56.557Z,87.70
2018-05-11T08:39:24.497Z,86.10
2018-05-11T08:41:52.607Z,87.70
2018-05-11T08:44:21.299Z,84.20
2018-05-11T08:46:49.300Z,84.10
2018-05-11T08:49:17.558Z,82.30
2018-05-11T08:51:46.228Z,83.50
2018-05-11T08:54:14.425Z,83.50
2018-05-11T08:56:42.418Z,80.70
2018-05-11T08:59:10.358Z,82.20
2018-05-11T09:01:38.256Z,82.10
2018-05-11T09:04:06.516Z,82.00
2018-05-11T09:06:34.717Z,83.60
2018-05-11T09:09:02.557Z,84.00
2018-05-11T09:11:30.638Z,82.10
2018-05-11T09:13:58.836Z,80.70
2018-05-11T09:16:26.782Z,81.80
2018-05-11T09:18:54.636Z,81.10
2018-05-11T09:21:22.813Z,80.50
2018-05-11T09:23:50.796Z,76.90
2018-05-11T09:26:19.417Z,76.30
2018-05-11T09:28:47.957Z,74.90
2018-05-11T09:31:16.944Z,73.80
2018-05-11T09:33:44.777Z,73.80
2018-05-11T09:36:12.697Z,75.00
2018-05-11T09:38:40.457Z,76.60
2018-05-11T09:41:09.157Z,76.20
2018-05-11T09:43:37.177Z,76.20
2018-05-11T09:46:05.085Z,77.40
2018-05-11T09:48:33.816Z,80.50
2018-05-11T09:51:01.698Z,80.50
2018-05-11T09:53:30.137Z,77.20
2018-05-11T09:55:57.897Z,79.70
2018-05-11T09:58:26.477Z,76.70
2018-05-11T10:00:55.091Z,76.90
2018-05-11T10:03:23.018Z,76.90
2018-05-11T10:05:51.398Z,79.30
2018-05-11T10:08:19.378Z,79.00
2018-05-11T10:10:47.179Z,79.30
2018-05-11T10:13:15.157Z,79.90
2018-05-11T10:15:43.198Z,80.80
2018-05-11T10:18:11.418Z,78.20
2018-05-11T10:20:39.336Z,80.50
2018-05-11T10:23:07.158Z,77.30
2018-05-11T10:25:35.016Z,76.40
2018-05-11T10:28:03.416Z,79.40
2018-05-11T10:30:31.577Z,78.10
2018-05-11T10:33:00.276Z,75.60
2018-05-11T10:35:28.976Z,75.60
2018-05-11T10:37:57.596Z,74.20
2018-05-11T10:40:25.517Z,74.00
2018-05-11T10:42:53.656Z,73.00
2018-05-11T10:45:21.481Z,71.90
2018-05-11T10:47:50.136Z,73.30
2018-05-11T10:50:18.060Z,73.20
2018-05-11T10:52:45.876Z,72.60
2018-05-11T10:55:14.679Z,74.90
2018-05-11T10:57:42.516Z,73.60
2018-05-11T11:00:10.146Z,72.50
2018-05-11T11:02:38.104Z,75.20
2018-05-11T11:05:05.825Z,70.20
2018-05-11T11:07:33.685Z,72.10
2018-05-11T11:10:01.665Z,73.80
2018-05-11T11:12:31.464Z,75.20
2018-05-11T11:15:01.558Z,73.40
2018-05-11T11:17:29.855Z,73.40
2018-05-11T11:19:57.669Z,72.80
2018-05-11T11:22:25.695Z,72.60
2018-05-11T11:24:53.599Z,72.10
2018-05-11T11:27:21.495Z,72.20
2018-05-11T11:29:49.536Z,72.10
2018-05-11T11:32:17.578Z,70.10
2018-05-11T11:34:45.423Z,72.30
2018-05-11T11:37:13.439Z,72.10
2018-05-11T11:39:41.215Z,71.50
2018-05-11T11:42:09.843Z,70.70
2018-05-11T11:44:37.575Z,70.80
2018-05-11T11:47:05.376Z,71.00
2018-05-11T11:49:33.215Z,68.50
2018-05-11T11:52:01.512Z,69.70
2018-05-11T11:54:29.395Z,69.10
2018-05-11T11:56:57.815Z,68.50
2018-05-11T11:59:25.836Z,63.30
2018-05-11T12:01:54.778Z,66.10
2018-05-11T12:04:22.578Z,66.10
2018-05-11T12:06:51.415Z,70.20
2018-05-11T12:09:19.297Z,70.30
2018-05-11T12:11:47.155Z,65.70
2018-05-11T12:14:15.118Z,69.40
2018-05-11T12:16:42.974Z,70.10
2018-05-11T12:19:11.914Z,70.90
2018-05-11T12:21:39.698Z,70.90
2018-05-11T12:24:07.714Z,70.60
2018-05-11T12:26:35.535Z,71.50
2018-05-11T12:29:03.574Z,71.60
2018-05-11T12:31:31.879Z,72.20
2018-05-11T12:34:00.257Z,68.70
2018-05-11T12:36:28.235Z,67.30
2018-05-11T12:38:57.698Z,70.40
2018-05-11T12:41:25.658Z,69.70
2018-05-11T12:43:53.715Z,66.70
2018-05-11T12:46:22.034Z,68.10
2018-05-11T12:48:49.814Z,70.40
2018-05-11T12:51:17.775Z,71.40
2018-05-11T12:53:45.614Z,71.50
2018-05-11T12:56:13.614Z,74.20
2018-05-11T12:58:41.441Z,70.50
2018-05-11T13:01:09.435Z,70.80
2018-05-11T13:03:37.434Z,69.20
2018-05-11T13:06:05.168Z,73.80
2018-05-11T13:08:33.494Z,70.50
2018-05-11T13:11:01.376Z,68.60
2018-05-11T13:13:29.555Z,72.50
2018-05-11T13:15:57.475Z,66.90
2018-05-11T13:18:25.695Z,68.00
2018-05-11T13:20:54.235Z,66.60
2018-05-11T13:23:22.116Z,66.60
2018-05-11T13:25:50.076Z,68.20
2018-05-11T13:28:18.074Z,68.00
2018-05-11T13:30:46.103Z,66.80
2018-05-11T13:33:13.894Z,65.60
2018-05-11T13:35:41.874Z,64.60
2018-05-11T13:38:09.756Z,64.50
2018-05-11T13:40:37.974Z,65.00
2018-05-11T13:43:05.914Z,66.00
2018-05-11T13:45:33.974Z,66.40
2018-05-11T13:48:02.716Z,67.40
2018-05-11T13:50:30.736Z,67.40
2018-05-11T13:52:59.414Z,65.00
2018-05-11T13:55:27.254Z,68.00
2018-05-11T13:57:55.415Z,62.00
2018-05-11T14:00:24.285Z,63.20
2018-05-11T14:02:52.160Z,62.10
2018-05-11T14:05:20.027Z,62.10
2018-05-11T14:07:47.859Z,66.80
2018-05-11T14:10:16.673Z,66.30
2018-05-11T14:12:44.398Z,66.80
2018-05-11T14:15:12.123Z,62.80
2018-05-11T14:17:40.141Z,63.40
2018-05-11T14:20:09.915Z,64.20
2018-05-11T14:22:37.694Z,69.20
2018-05-11T14:25:05.454Z,67.20
2018-05-11T14:27:33.377Z,65.70
2018-05-11T14:30:04.484Z,64.70
2018-05-11T14:32:32.446Z,66.50
2018-05-11T14:35:00.450Z,69.40
2018-05-11T14:37:29.019Z,73.30
2018-05-11T14:39:56.899Z,73.30
2018-05-11T14:42:24.904Z,75.10
2018-05-11T14:44:52.703Z,76.20
2018-05-11T14:47:21.417Z,76.70
2018-05-11T14:49:49.338Z,76.70
2018-05-11T14:52:17.237Z,76.60
2018-05-11T14:54:45.158Z,79.00
2018-05-11T14:57:13.877Z,78.70
2018-05-11T14:59:41.782Z,80.40
2018-05-11T15:02:09.509Z,80.80
2018-05-11T15:04:37.295Z,78.50
2018-05-11T15:07:05.021Z,78.40
2018-05-11T15:09:32.898Z,79.10
2018-05-11T15:12:00.779Z,79.80
2018-05-11T15:14:30.102Z,79.60
2018-05-11T15:16:58.079Z,78.10
2018-05-11T15:19:25.935Z,79.00
2018-05-11T15:21:53.775Z,78.50
2018-05-11T15:24:21.754Z,77.00
2018-05-11T15:26:51.475Z,77.20
2018-05-11T15:29:19.598Z,76.50
2018-05-11T15:31:48.401Z,76.70
2018-05-11T15:34:16.177Z,76.20
2018-05-11T15:36:44.036Z,75.00
2018-05-11T15:39:12.756Z,75.10
2018-05-11T15:41:40.596Z,75.10
2018-05-11T15:44:08.676Z,73.70
2018-05-11T15:46:37.938Z,75.10
2018-05-11T15:49:05.897Z,75.20
2018-05-11T15:51:34.200Z,75.30
2018-05-11T15:54:02.138Z,74.80
2018-05-11T15:56:32.051Z,74.50
2018-05-11T15:59:00.107Z,75.20
2018-05-11T16:01:28.541Z,74.30
2018-05-11T16:03:56.439Z,75.50
2018-05-11T16:06:24.559Z,75.50
2018-05-11T16:08:52.738Z,75.30
2018-05-11T16:11:21.938Z,75.40
2018-05-11T16:13:51.440Z,75.60
2018-05-11T16:16:19.624Z,75.60
2018-05-11T16:18:48.578Z,77.20
2018-05-11T16:21:16.419Z,77.20
2018-05-11T16:23:44.978Z,76.70
2018-05-11T16:26:13.182Z,76.70
2018-05-11T16:28:41.815Z,78.20
2018-05-11T16:31:10.256Z,76.60
2018-05-11T16:33:38.796Z,77.80
2018-05-11T16:36:07.479Z,77.60
2018-05-11T16:38:35.227Z,77.60
2018-05-11T16:41:03.908Z,77.70
2018-05-11T16:43:32.236Z,77.70
2018-05-11T16:45:59.975Z,78.80
2018-05-11T16:48:27.915Z,79.10
2018-05-11T16:50:55.796Z,79.10
2018-05-11T16:53:23.695Z,79.50
2018-05-11T16:55:51.698Z,80.00
2018-05-11T16:58:20.295Z,80.90
2018-05-11T17:00:48.320Z,80.90
2018-05-11T17:03:16.177Z,80.90
2018-05-11T17:05:44.018Z,80.90
2018-05-11T17:08:11.982Z,81.20
2018-05-11T17:10:39.836Z,81.70
2018-05-11T17:13:07.736Z,81.70
2018-05-11T17:15:38.257Z,82.20
2018-05-11T17:18:06.016Z,82.10
2018-05-11T17:23:06.694Z,82.60
2018-05-11T17:25:34.854Z,82.50
2018-05-11T17:28:02.616Z,82.80
2018-05-11T17:30:30.617Z,83.30
2018-05-11T17:32:58.796Z,83.40
2018-05-11T17:35:26.935Z,83.40
2018-05-11T17:37:54.914Z,84.30
2018-05-11T17:40:22.744Z,84.30
2018-05-11T17:42:50.877Z,84.50
2018-05-11T17:45:18.819Z,84.70
2018-05-11T17:47:46.888Z,85.40
2018-05-11T17:50:15.058Z,84.80
2018-05-11T17:52:43.497Z,85.40
2018-05-11T17:55:11.425Z,85.20
2018-05-11T17:57:39.323Z,85.50
2018-05-11T18:00:07.470Z,85.70
2018-05-11T18:02:35.261Z,86.20
2018-05-11T18:05:03.025Z,86.70
2018-05-11T18:07:31.146Z,86.70
2018-05-11T18:09:59.067Z,86.60
2018-05-11T18:12:27.012Z,86.40
2018-05-11T18:14:54.787Z,86.70
2018-05-11T18:17:22.640Z,86.60
2018-05-11T18:22:23.201Z,85.40
2018-05-11T18:24:51.160Z,85.30
2018-05-11T18:27:19.019Z,84.30
2018-05-11T18:29:46.935Z,84.00
2018-05-11T18:32:14.716Z,84.50
2018-05-11T18:34:42.654Z,86.40
2018-05-11T18:37:10.523Z,86.40
2018-05-11T18:39:38.485Z,86.10
2018-05-11T18:42:06.336Z,86.30
2018-05-11T18:44:34.240Z,87.10
2018-05-11T18:47:02.143Z,86.50
2018-05-11T18:49:30.815Z,84.60
2018-05-11T18:51:58.758Z,84.60
2018-05-11T18:54:27.658Z,85.00
2018-05-11T18:56:55.097Z,85.00
2018-05-11T18:59:22.764Z,85.20
2018-05-11T19:01:50.619Z,85.60
2018-05-11T19:04:18.459Z,86.00
2018-05-11T19:06:46.300Z,86.20
2018-05-11T19:09:14.099Z,86.30
2018-05-11T19:11:42.179Z,86.50
2018-05-11T19:14:10.120Z,86.90
2018-05-11T19:16:37.944Z,87.10
2018-05-11T19:19:05.726Z,87.10
2018-05-11T19:21:33.462Z,87.40
2018-05-11T19:24:01.323Z,87.50
2018-05-11T19:26:29.167Z,87.80
2018-05-11T19:28:57.116Z,88.30
2018-05-11T19:31:25.036Z,88.90
2018-05-11T19:33:52.875Z,88.90
2018-05-11T19:36:20.729Z,88.90
2018-05-11T19:38:48.516Z,89.00
2018-05-11T19:41:17.082Z,89.50
2018-05-11T19:43:44.858Z,89.40
2018-05-11T19:46:12.635Z,89.60
2018-05-11T19:48:41.316Z,89.60
2018-05-11T19:51:09.076Z,89.50
2018-05-11T19:53:37.678Z,89.30
2018-05-11T19:56:05.425Z,89.30
2018-05-11T19:58:33.314Z,89.40
2018-05-11T20:01:02.042Z,89.80
2018-05-11T20:03:29.776Z,89.80
2018-05-11T20:05:57.596Z,89.80
2018-05-11T20:08:25.354Z,90.00
2018-05-11T20:10:53.166Z,89.90
2018-05-11T20:13:21.079Z,89.70
2018-05-11T20:15:48.919Z,89.70
2018-05-11T20:18:16.825Z,89.80
2018-05-11T20:20:45.794Z,89.80
2018-05-11T20:23:14.357Z,89.80
2018-05-11T20:25:42.157Z,89.80
2018-05-11T20:28:10.196Z,89.90
2018-05-11T20:30:37.957Z,90.10
2018-05-11T20:33:05.789Z,89.10
2018-05-11T20:35:33.602Z,83.70
2018-05-11T20:38:01.440Z,87.00
2018-05-11T20:40:29.240Z,91.10
2018-05-11T20:42:57.342Z,91.90
2018-05-11T20:45:25.100Z,92.10
2018-05-11T20:47:52.817Z,92.30
2018-05-11T20:50:21.471Z,91.70
2018-05-11T20:52:49.318Z,91.70
2018-05-11T20:55:17.123Z,92.20
2018-05-11T20:57:45.692Z,91.90
2018-05-11T21:00:13.395Z,91.80
2018-05-11T21:02:41.357Z,91.70
2018-05-11T21:05:09.196Z,91.60
2018-05-11T21:07:37.219Z,91.50
2018-05-11T21:10:05.255Z,91.40
2018-05-11T21:12:33.284Z,91.60
2018-05-11T21:15:01.102Z,91.80
2018-05-11T21:17:28.936Z,92.10
2018-05-11T21:19:56.916Z,92.00
2018-05-11T21:22:24.700Z,92.10
2018-05-11T21:24:52.675Z,92.00
2018-05-11T21:27:20.627Z,92.00
2018-05-11T21:29:49.337Z,92.50
2018-05-11T21:32:17.198Z,92.50
2018-05-11T21:34:47.118Z,86.70
2018-05-11T21:37:15.155Z,88.10
2018-05-11T21:39:43.254Z,89.10
2018-05-11T21:42:11.096Z,90.40
2018-05-11T21:44:38.942Z,90.90
2018-05-11T21:47:07.316Z,90.10
2018-05-11T21:49:35.255Z,92.40
2018-05-11T21:52:03.216Z,93.50
2018-05-11T21:54:31.154Z,93.90
2018-05-11T21:56:58.955Z,93.60
2018-05-11T21:59:26.714Z,93.80
2018-05-11T22:01:54.563Z,93.70
2018-05-11T22:04:23.142Z,93.90
2018-05-11T22:06:51.002Z,93.80
2018-05-11T22:09:19.183Z,93.80
2018-05-11T22:11:47.742Z,93.40
2018-05-11T22:14:17.337Z,93.40
2018-05-11T22:16:45.195Z,93.30
2018-05-11T22:19:13.416Z,93.40
2018-05-11T22:21:41.936Z,93.80
2018-05-11T22:24:10.135Z,93.70
2018-05-11T22:26:37.896Z,93.70
2018-05-11T22:29:06.176Z,93.60
2018-05-11T22:31:34.916Z,93.30
2018-05-11T22:34:02.859Z,93.30
2018-05-11T22:36:30.716Z,93.10
2018-05-11T22:38:58.756Z,93.40
2018-05-11T22:41:26.536Z,93.60
2018-05-11T22:43:54.476Z,93.50
2018-05-11T22:46:22.478Z,93.60
2018-05-11T22:48:50.223Z,93.60
2018-05-11T22:51:19.336Z,93.70
2018-05-11T22:53:47.096Z,93.70
2018-05-11T22:56:15.115Z,93.90
2018-05-11T22:58:42.916Z,93.90
2018-05-11T23:01:10.816Z,93.90
2018-05-11T23:03:39.011Z,93.90
2018-05-11T23:06:06.935Z,93.90
2018-05-11T23:08:34.956Z,93.90
2018-05-11T23:11:02.897Z,94.00
2018-05-11T23:13:30.776Z,94.00
2018-05-11T23:15:58.756Z,93.90
2018-05-11T23:18:26.578Z,93.90
2018-05-11T23:20:54.396Z,93.90
2018-05-11T23:23:22.455Z,94.00
2018-05-11T23:25:50.337Z,94.10
2018-05-11T23:28:18.136Z,94.00
2018-05-11T23:30:46.156Z,94.00
2018-05-11T23:33:14.098Z,94.30
2018-05-11T23:35:42.296Z,93.80
2018-05-11T23:38:10.976Z,93.90
2018-05-11T23:40:39.734Z,93.90
2018-05-11T23:43:07.676Z,93.60
2018-05-11T23:45:35.616Z,93.30
2018-05-11T23:48:03.416Z,93.50
2018-05-11T23:50:31.516Z,93.50
2018-05-11T23:52:59.718Z,93.50
2018-05-11T23:55:27.696Z,93.50
2018-05-11T23:57:55.416Z,93.40
